Time;durP1;ratioP1;P1;durP2;ratioP2;P2;SDS_P1;SDS_P2;PMS_P1;PMS_P2;Temp;Humidity;BMP_temperature;BMP_pressure;BME280_temperature;BME280_humidity;BME280_pressure;Samples;Min_cycle;Max_cycle;Signal;HPM_P1;HPM_P2
2022/11/17 00:02:22;;;;;;;;;2.00;2.00;;;;;20.60;56.71;100334.96;105164;1291;22381;-65
2022/11/17 00:04:49;;;;;;;;;2.00;2.00;;;;;20.59;57.01;100338.10;105756;1284;18323;-65
2022/11/17 00:07:17;;;;;;;;;1.00;1.00;;;;;20.56;56.70;100335.87;105708;1300;18680;-65
2022/11/17 00:09:45;;;;;;;;;2.00;2.00;;;;;20.57;56.76;100331.60;105659;1296;19452;-65
2022/11/17 00:14:57;;;;;;;;;2.00;2.00;;;;;20.58;56.77;100325.96;105685;1293;18636;-64
2022/11/17 00:17:25;;;;;;;;;2.00;2.00;;;;;20.57;56.81;100319.84;105597;1297;138276;-65
2022/11/17 00:22:38;;;;;;;;;2.00;2.00;;;;;20.58;56.60;100319.90;105618;1280;18502;-63
2022/11/17 00:25:05;;;;;;;;;2.00;2.00;;;;;20.58;56.72;100323.53;105687;1297;19502;-64
2022/11/17 00:27:33;;;;;;;;;4.00;2.00;;;;;20.57;56.58;100319.28;105717;1287;18589;-64
2022/11/17 00:30:01;;;;;;;;;1.00;1.00;;;;;20.56;56.68;100315.45;105702;1280;18539;-64
2022/11/17 00:35:13;;;;;;;;;2.00;2.00;;;;;20.57;56.78;100315.11;105682;1297;18499;-64
2022/11/17 00:38:14;;;;;;;;;1.00;1.00;;;;;20.56;56.57;100316.17;105687;1290;18564;-64
2022/11/17 00:40:30;;;;;;;;;2.00;2.00;;;;;20.57;56.67;100313.33;105681;1281;19341;-63
2022/11/17 00:42:58;;;;;;;;;4.00;2.00;;;;;20.56;56.64;100317.21;105740;1279;18303;-65
2022/11/17 00:45:26;;;;;;;;;2.00;2.00;;;;;20.57;56.61;100320.00;105677;1296;19512;-65
2022/11/17 00:47:54;;;;;;;;;2.00;2.00;;;;;20.57;56.42;100317.69;105687;1296;19468;-65
2022/11/17 00:50:22;;;;;;;;;1.00;1.00;;;;;20.56;56.57;100315.71;105705;1288;22018;-64
2022/11/17 00:52:50;;;;;;;;;1.00;1.00;;;;;20.57;56.58;100319.11;105676;1297;18879;-64
2022/11/17 00:55:18;;;;;;;;;1.00;1.00;;;;;20.57;56.43;100317.14;105684;1297;22012;-65
2022/11/17 00:57:46;;;;;;;;;2.00;2.00;;;;;20.56;56.54;100319.98;105690;1285;18666;-66
2022/11/17 01:00:14;;;;;;;;;1.00;1.00;;;;;20.56;56.44;100319.57;105682;1283;18548;-65
2022/11/17 01:02:42;;;;;;;;;1.00;1.00;;;;;20.56;56.42;100323.17;105741;1288;19516;-65
2022/11/17 01:05:09;;;;;;;;;2.00;2.00;;;;;20.57;56.34;100323.85;105681;1297;18500;-65
2022/11/17 01:07:37;;;;;;;;;1.00;1.00;;;;;20.55;56.43;100323.70;105699;1281;18625;-65
2022/11/17 01:10:04;;;;;;;;;2.00;2.00;;;;;20.54;56.28;100327.92;105718;1279;20481;-65
2022/11/17 01:12:32;;;;;;;;;2.00;2.00;;;;;20.53;56.53;100321.71;105693;1279;18441;-65
2022/11/17 01:15:00;;;;;;;;;1.00;1.00;;;;;20.55;56.44;100321.69;105710;1279;18820;-64
2022/11/17 01:17:27;;;;;;;;;1.00;1.00;;;;;20.54;56.50;100319.92;105682;1295;19279;-64
2022/11/17 01:19:55;;;;;;;;;1.00;1.00;;;;;20.54;56.37;100316.77;105689;1293;18445;-65
2022/11/17 01:22:23;;;;;;;;;1.00;1.00;;;;;20.53;56.56;100315.02;105707;1295;18717;-64
2022/11/17 01:24:50;;;;;;;;;2.00;1.00;;;;;20.54;56.47;100312.77;105753;1279;19619;-64
2022/11/17 01:27:18;;;;;;;;;2.00;1.00;;;;;20.52;56.41;100312.27;105687;1279;18397;-64
2022/11/17 01:29:45;;;;;;;;;1.00;1.00;;;;;20.52;56.49;100316.22;105662;1279;18747;-64
2022/11/17 01:32:13;;;;;;;;;1.00;1.00;;;;;20.52;56.43;100313.65;105660;1297;19192;-65
2022/11/17 01:34:41;;;;;;;;;1.00;1.00;;;;;20.52;56.46;100318.73;105689;1297;18563;-64
2022/11/17 01:37:21;;;;;;;;;1.00;1.00;;;;;20.52;56.29;100316.38;105701;1295;18476;-65
2022/11/17 01:39:49;;;;;;;;;1.00;1.00;;;;;20.53;56.50;100317.02;105746;1279;19677;-66
2022/11/17 01:42:16;;;;;;;;;2.00;2.00;;;;;20.52;56.24;100314.36;105733;1272;18417;-65
2022/11/17 01:44:46;;;;;;;;;1.00;1.00;;;;;20.52;56.41;100311.77;105705;1287;18625;-64
2022/11/17 01:47:14;;;;;;;;;1.00;1.00;;;;;20.52;56.36;100315.16;105701;1294;19491;-64
2022/11/17 01:49:42;;;;;;;;;1.50;1.50;;;;;20.51;56.24;100308.89;105683;1297;18397;-65
2022/11/17 01:52:09;;;;;;;;;1.00;1.00;;;;;20.50;56.35;100308.63;105702;1283;18748;-66
2022/11/17 01:54:37;;;;;;;;;1.00;1.00;;;;;20.51;56.11;100306.52;105659;1297;19276;-64
2022/11/17 01:57:04;;;;;;;;;1.00;1.00;;;;;20.51;56.36;100308.55;105651;1292;18254;-64
2022/11/17 01:59:32;;;;;;;;;1.00;1.00;;;;;20.51;56.17;100298.85;105670;1296;20084;-65
2022/11/17 02:01:59;;;;;;;;;1.00;1.00;;;;;20.51;56.09;100301.23;105664;1279;19297;-64
2022/11/17 02:04:27;;;;;;;;;1.00;1.00;;;;;20.51;56.04;100300.19;105685;1296;20399;-64
2022/11/17 02:06:54;;;;;;;;;2.00;2.00;;;;;20.50;56.17;100296.23;105719;1299;23528;-63
2022/11/17 02:09:21;;;;;;;;;1.00;1.00;;;;;20.51;56.25;100298.30;105669;1275;19412;-64
2022/11/17 02:11:49;;;;;;;;;1.00;1.00;;;;;20.51;56.17;100298.23;105707;1289;18758;-64
2022/11/17 02:14:16;;;;;;;;;1.00;1.00;;;;;20.51;56.20;100300.17;105739;1289;18512;-64
2022/11/17 02:16:44;;;;;;;;;1.00;1.00;;;;;20.51;56.21;100296.77;105694;1281;20998;-64
2022/11/17 02:19:11;;;;;;;;;1.00;1.00;;;;;20.49;56.07;100291.52;105739;1288;22455;-64
2022/11/17 02:21:38;;;;;;;;;1.00;1.00;;;;;20.50;56.15;100287.30;105682;1297;22115;-64
2022/11/17 02:24:06;;;;;;;;;1.00;1.00;;;;;20.50;56.13;100285.92;105685;1297;19287;-65
2022/11/17 02:26:33;;;;;;;;;1.00;1.00;;;;;20.49;55.98;100280.80;105702;1295;20222;-65
2022/11/17 02:29:00;;;;;;;;;1.00;1.00;;;;;20.49;56.02;100279.34;105704;1272;18551;-65
2022/11/17 02:31:28;;;;;;;;;1.00;1.00;;;;;20.49;55.94;100273.80;105708;1279;19316;-65
2022/11/17 02:33:55;;;;;;;;;1.00;1.00;;;;;20.49;56.26;100273.93;105735;1279;22909;-65
2022/11/17 02:36:22;;;;;;;;;1.00;1.00;;;;;20.49;56.20;100278.45;105738;1274;20073;-64
2022/11/17 02:38:50;;;;;;;;;1.00;1.00;;;;;20.48;55.89;100275.10;105707;1297;19297;-64
2022/11/17 02:41:17;;;;;;;;;1.00;1.00;;;;;20.49;56.27;100272.13;105705;1278;23043;-63
2022/11/17 02:46:30;;;;;;;;;1.00;1.00;;;;;20.49;56.02;100272.30;105689;1287;23024;-64
2022/11/17 02:48:57;;;;;;;;;1.00;1.00;;;;;20.48;55.92;100272.12;105726;1298;18431;-63
2022/11/17 02:51:25;;;;;;;;;1.00;1.00;;;;;20.48;56.05;100271.03;105715;1288;22438;-64
2022/11/17 02:53:52;;;;;;;;;1.00;1.00;;;;;20.47;56.07;100269.52;105656;1288;20906;-64
2022/11/17 02:56:19;;;;;;;;;1.00;1.00;;;;;20.48;55.76;100274.48;105708;1279;18378;-65
2022/11/17 02:58:47;;;;;;;;;1.00;1.00;;;;;20.47;56.01;100275.64;105699;1276;18548;-64
2022/11/17 03:01:14;;;;;;;;;1.50;1.50;;;;;20.48;55.88;100280.45;105699;1289;22869;-65
2022/11/17 03:03:42;;;;;;;;;1.00;1.00;;;;;20.48;56.12;100283.94;105686;1297;18519;-64
2022/11/17 03:06:09;;;;;;;;;1.00;1.00;;;;;20.47;55.98;100288.16;105714;1296;19867;-64
2022/11/17 03:08:37;;;;;;;;;1.00;1.00;;;;;20.46;56.00;100293.55;105714;1279;19429;-65
2022/11/17 03:11:05;;;;;;;;;2.00;1.00;;;;;20.47;56.04;100290.23;105674;1272;18351;-65
2022/11/17 03:13:32;;;;;;;;;1.00;1.00;;;;;20.47;55.79;100293.63;105601;1288;18531;-66
2022/11/17 03:15:59;;;;;;;;;;;;;;;20.47;55.88;100299.42;105725;1297;22730;-66
2022/11/17 03:18:27;;;;;;;;;1.00;1.00;;;;;20.47;55.72;100297.59;105721;1297;19710;-66
2022/11/17 03:20:54;;;;;;;;;1.00;1.00;;;;;20.46;55.96;100295.31;105729;1289;18627;-66
2022/11/17 03:23:23;;;;;;;;;1.00;1.00;;;;;20.47;55.88;100292.73;105658;1297;21792;-62
2022/11/17 03:25:52;;;;;;;;;1.00;1.00;;;;;20.47;55.60;100288.70;105711;1289;18393;-64
2022/11/17 03:28:19;;;;;;;;;1.00;1.00;;;;;20.46;55.84;100288.84;105744;1297;18480;-62
2022/11/17 03:30:47;;;;;;;;;1.00;1.00;;;;;20.45;55.94;100283.34;105698;1272;22228;-63
2022/11/17 03:33:15;;;;;;;;;1.00;1.00;;;;;20.45;55.74;100277.68;105700;1279;19643;-64
2022/11/17 03:35:42;;;;;;;;;1.00;1.00;;;;;20.45;55.83;100276.83;105742;1279;18520;-63
2022/11/17 03:38:09;;;;;;;;;1.00;1.00;;;;;20.44;55.68;100279.27;105689;1297;19303;-65
2022/11/17 03:40:37;;;;;;;;;1.00;1.00;;;;;20.45;56.09;100281.89;105733;1281;18389;-64
2022/11/17 03:43:04;;;;;;;;;1.00;1.00;;;;;20.45;55.79;100283.45;105724;1288;22855;-64
2022/11/17 03:45:32;;;;;;;;;1.00;1.00;;;;;20.45;55.82;100280.62;105695;1275;19417;-65
2022/11/17 03:47:59;;;;;;;;;1.00;1.00;;;;;20.44;55.76;100285.21;105697;1288;18422;-65
2022/11/17 03:50:27;;;;;;;;;1.00;1.00;;;;;20.45;55.82;100284.27;105695;1288;18547;-64
2022/11/17 03:52:55;;;;;;;;;1.00;1.00;;;;;20.45;55.82;100288.73;105667;1295;21181;-64
2022/11/17 03:55:22;;;;;;;;;1.50;1.00;;;;;20.46;55.76;100287.61;105757;1279;19692;-64
2022/11/17 03:57:50;;;;;;;;;1.00;1.00;;;;;20.45;55.64;100284.41;105658;1291;20250;-65
2022/11/17 04:00:17;;;;;;;;;1.00;1.00;;;;;20.45;55.64;100286.08;105719;1272;19185;-64
2022/11/17 04:02:44;;;;;;;;;1.00;1.00;;;;;20.44;55.72;100288.02;105725;1279;18548;-63
2022/11/17 04:05:12;;;;;;;;;1.00;1.00;;;;;20.44;55.81;100287.26;105694;1295;21579;-64
2022/11/17 04:07:40;;;;;;;;;1.00;1.00;;;;;20.43;55.87;100283.86;105674;1287;19842;-65
2022/11/17 04:10:07;;;;;;;;;1.00;1.00;;;;;20.43;55.88;100288.77;105723;1285;22896;-63
2022/11/17 04:18:13;;;;;;;;;1.00;1.00;;;;;20.43;55.89;100286.27;105679;1295;18408;-63
2022/11/17 04:20:41;;;;;;;;;1.00;1.00;;;;;20.43;55.65;100285.57;105707;1295;18462;-61
2022/11/17 04:23:10;;;;;;;;;1.00;1.00;;;;;20.42;55.71;100281.63;105692;1280;22780;-65
2022/11/17 04:28:38;;;;;;;;;1.00;1.00;;;;;20.42;55.74;100287.62;105740;1298;22768;-62
2022/11/17 04:31:05;;;;;;;;;1.00;1.00;;;;;20.43;55.58;100291.90;105766;1297;20909;-65
2022/11/17 04:33:33;;;;;;;;;1.00;1.00;;;;;20.42;55.53;100293.14;105716;1297;18528;-65
2022/11/17 04:36:01;;;;;;;;;1.00;1.00;;;;;20.41;55.61;100294.89;105689;1289;18912;-65
2022/11/17 04:38:29;;;;;;;;;1.00;1.00;;;;;20.41;55.67;100291.34;105656;1279;20905;-65
2022/11/17 04:43:42;;;;;;;;;1.00;1.00;;;;;20.41;55.61;100286.14;105689;1294;18802;-65
2022/11/17 04:46:10;;;;;;;;;1.00;1.00;;;;;20.41;55.53;100287.06;105717;1279;19289;-65
2022/11/17 04:48:38;;;;;;;;;1.00;1.00;;;;;20.41;55.59;100284.55;105638;1295;22188;-65
2022/11/17 04:51:06;;;;;;;;;1.00;1.00;;;;;20.41;55.59;100285.05;105692;1279;18486;-65
2022/11/17 04:53:33;;;;;;;;;1.00;1.00;;;;;20.41;55.60;100282.71;105744;1297;19267;-65
2022/11/17 04:56:00;;;;;;;;;1.00;1.00;;;;;20.40;55.37;100275.77;105694;1295;22839;-64
2022/11/17 04:58:28;;;;;;;;;1.00;1.00;;;;;20.40;55.58;100271.93;105763;1296;18515;-65
2022/11/17 05:00:55;;;;;;;;;1.00;1.00;;;;;20.40;55.55;100275.94;105763;1295;19412;-65
2022/11/17 05:03:22;;;;;;;;;1.00;1.00;;;;;20.40;55.47;100278.71;105686;1297;18505;-65
2022/11/17 05:05:50;;;;;;;;;1.00;1.00;;;;;20.40;55.57;100274.86;105727;1274;18685;-65
2022/11/17 05:08:17;;;;;;;;;1.00;1.00;;;;;20.40;55.59;100275.54;105720;1281;20867;-64
2022/11/17 05:13:30;;;;;;;;;1.00;1.00;;;;;20.40;55.48;100276.66;105731;1297;22703;-65
2022/11/17 05:18:42;;;;;;;;;1.00;1.00;;;;;20.39;55.33;100280.27;105688;1295;18396;-65
2022/11/17 05:21:10;;;;;;;;;1.00;1.00;;;;;20.39;55.30;100281.50;105687;1282;19987;-65
2022/11/17 05:23:56;;;;;;;;;1.00;1.00;;;;;20.39;55.35;100282.03;105665;1298;21954;-65
2022/11/17 05:26:24;;;;;;;;;1.00;1.00;;;;;20.39;55.51;100282.62;105691;1287;18436;-66
2022/11/17 05:28:51;;;;;;;;;1.00;1.00;;;;;20.38;55.28;100283.20;105672;1276;18523;-64
2022/11/17 05:31:18;;;;;;;;;1.00;1.00;;;;;20.39;55.32;100285.00;105717;1289;20693;-64
2022/11/17 05:33:46;;;;;;;;;1.00;1.00;;;;;20.38;55.25;100279.94;105646;1288;24146;-64
2022/11/17 05:36:13;;;;;;;;;1.00;1.00;;;;;20.37;55.33;100279.88;105689;1286;20039;-64
2022/11/17 05:38:40;;;;;;;;;;;;;;;20.37;55.40;100281.39;105690;1282;21605;-64
2022/11/17 05:41:08;;;;;;;;;1.00;1.00;;;;;20.38;55.19;100282.89;105712;1279;19694;-65
2022/11/17 05:43:35;;;;;;;;;1.00;1.00;;;;;20.38;55.30;100278.33;105705;1297;18391;-65
2022/11/17 05:46:02;;;;;;;;;1.00;1.00;;;;;20.37;55.22;100272.09;105703;1281;20906;-64
2022/11/17 05:48:30;;;;;;;;;1.00;1.00;;;;;20.37;55.42;100273.80;105685;1279;19723;-64
2022/11/17 05:50:57;;;;;;;;;1.00;1.00;;;;;20.36;55.28;100272.04;105665;1297;19134;-65
2022/11/17 05:53:25;;;;;;;;;1.00;1.00;;;;;20.37;55.15;100274.72;105677;1288;19306;-65
2022/11/17 05:55:54;;;;;;;;;2.00;1.00;;;;;20.35;55.17;100271.44;105655;1295;18857;-64
2022/11/17 05:58:21;;;;;;;;;1.00;1.00;;;;;20.37;55.46;100271.63;105718;1279;19252;-64
2022/11/17 06:00:49;;;;;;;;;1.00;1.00;;;;;20.39;55.43;100274.73;105704;1295;19341;-65
2022/11/17 06:03:17;;;;;;;;;1.00;1.00;;;;;20.43;55.28;100274.98;105661;1297;18569;-65
2022/11/17 06:05:44;;;;;;;;;26.50;24.00;;;;;20.46;55.25;100273.92;105602;1287;22116;-65
2022/11/17 06:08:12;;;;;;;;;84.00;66.00;;;;;20.48;55.48;100272.42;105659;1271;19297;-62
2022/11/17 06:10:39;;;;;;;;;106.50;91.50;;;;;20.50;55.73;100271.27;105671;1301;22368;-65
2022/11/17 06:13:06;;;;;;;;;;;;;;;20.52;55.89;100271.05;105681;1272;18687;-67
2022/11/17 06:15:34;;;;;;;;;102.00;79.00;;;;;20.52;55.99;100274.69;105646;1278;19300;-66
2022/11/17 06:18:01;;;;;;;;;;;;;;;20.52;56.30;100275.89;105604;1280;18649;-65
2022/11/17 06:20:28;;;;;;;;;;;;;;;20.54;56.47;100276.23;105651;1296;18266;-64
2022/11/17 06:22:56;;;;;;;;;72.00;57.00;;;;;20.54;56.15;100277.11;105617;1295;19688;-66
2022/11/17 06:25:23;;;;;;;;;69.00;56.00;;;;;20.55;56.34;100278.42;105655;1295;18342;-66
2022/11/17 06:27:51;;;;;;;;;;;;;;;20.56;56.27;100281.62;105622;1272;20174;-65
2022/11/17 06:30:18;;;;;;;;;52.00;42.00;;;;;20.55;56.51;100288.31;105678;1280;22693;-65
2022/11/17 06:32:46;;;;;;;;;39.00;38.00;;;;;20.53;56.52;100290.47;105644;1281;22852;-65
2022/11/17 06:35:15;;;;;;;;;35.00;34.00;;;;;20.53;56.34;100300.10;105653;1280;18644;-66
2022/11/17 06:37:42;;;;;;;;;35.00;32.00;;;;;20.52;56.41;100294.83;105664;1295;21159;-65
2022/11/17 06:40:12;;;;;;;;;26.00;25.00;;;;;20.50;56.17;100295.91;105729;1297;20078;-66
2022/11/17 06:45:25;;;;;;;;;25.00;22.00;;;;;20.50;56.15;100292.38;105680;1288;19401;-64
2022/11/17 06:47:52;;;;;;;;;25.00;22.00;;;;;20.49;56.13;100297.34;105612;1272;22009;-62
2022/11/17 06:50:19;;;;;;;;;19.00;18.00;;;;;20.48;56.07;100297.70;105659;1271;18624;-64
2022/11/17 06:52:47;;;;;;;;;22.00;18.00;;;;;20.45;55.88;100304.31;105689;1272;19339;-64
2022/11/17 06:55:14;;;;;;;;;18.00;16.00;;;;;20.45;56.09;100304.11;105695;1280;18797;-65
2022/11/17 06:57:42;;;;;;;;;15.50;15.00;;;;;20.45;55.86;100301.77;105664;1280;21252;-63
2022/11/17 07:00:09;;;;;;;;;14.00;12.00;;;;;20.45;55.85;100301.94;105660;1271;19284;-64
2022/11/17 07:02:37;;;;;;;;;;;;;;;20.45;55.82;100298.77;105536;1280;18570;-64
2022/11/17 07:05:04;;;;;;;;;12.00;12.00;;;;;20.44;55.89;100294.44;105690;1288;21399;-63
2022/11/17 07:07:31;;;;;;;;;13.00;12.00;;;;;20.43;55.78;100292.58;105703;1295;22371;-64
2022/11/17 07:09:59;;;;;;;;;11.00;11.00;;;;;20.43;55.78;100296.84;105699;1300;18558;-65
2022/11/17 07:12:26;;;;;;;;;13.00;12.00;;;;;20.42;55.77;100294.73;105718;1289;18586;-64
2022/11/17 07:14:54;;;;;;;;;11.00;11.00;;;;;20.42;55.84;100299.27;105671;1295;22763;-63
2022/11/17 07:17:21;;;;;;;;;14.00;12.00;;;;;20.42;55.71;100298.72;105666;1287;22670;-65
2022/11/17 07:19:48;;;;;;;;;8.33;8.33;;;;;20.42;55.82;100298.76;105685;1295;18591;-64
2022/11/17 07:22:16;;;;;;;;;8.00;8.00;;;;;20.42;55.61;100293.65;105728;1289;19400;-65
2022/11/17 07:24:43;;;;;;;;;8.50;8.50;;;;;20.41;55.61;100292.64;105702;1288;18615;-64
2022/11/17 07:27:11;;;;;;;;;8.00;8.00;;;;;20.41;55.69;100288.86;105690;1295;21962;-65
2022/11/17 07:29:38;;;;;;;;;11.00;8.00;;;;;20.41;55.59;100288.45;105703;1288;20764;-65
2022/11/17 07:32:05;;;;;;;;;9.00;8.00;;;;;20.42;55.81;100289.16;105661;1279;20039;-65
2022/11/17 07:34:33;;;;;;;;;9.00;9.00;;;;;20.43;55.54;100283.86;105718;1287;21510;-65
2022/11/17 07:37:00;;;;;;;;;7.50;7.00;;;;;20.46;55.35;100278.29;105729;1297;19314;-65
2022/11/17 07:39:27;;;;;;;;;11.00;8.00;;;;;20.48;55.25;100274.46;105700;1288;18668;-66
2022/11/17 07:41:55;;;;;;;;;4.50;4.50;;;;;20.48;55.20;100278.78;105674;1294;18571;-65
2022/11/17 07:44:22;;;;;;;;;7.00;7.00;;;;;20.53;55.24;100284.17;105727;1288;20679;-64
2022/11/17 07:46:50;;;;;;;;;7.00;5.00;;;;;20.55;54.99;100285.05;105683;1279;18594;-64
2022/11/17 07:49:17;;;;;;;;;7.00;7.00;;;;;20.60;55.04;100289.50;105684;1297;23474;-65
2022/11/17 07:51:45;;;;;;;;;7.00;5.00;;;;;20.65;54.90;100287.66;105655;1301;19448;-63
2022/11/17 07:54:12;;;;;;;;;6.00;5.00;;;;;20.70;54.86;100288.04;105706;1279;18417;-64
2022/11/17 07:56:39;;;;;;;;;7.00;7.00;;;;;20.76;54.41;100288.83;105689;1279;18548;-65
2022/11/17 07:59:06;;;;;;;;;4.50;4.50;;;;;20.81;54.32;100286.55;105681;1280;19312;-65
2022/11/17 08:01:34;;;;;;;;;5.00;4.00;;;;;20.85;54.26;100289.95;105709;1297;19860;-65
2022/11/17 08:04:01;;;;;;;;;4.00;4.00;;;;;20.89;54.14;100288.01;105689;1297;18507;-65
2022/11/17 08:06:28;;;;;;;;;4.00;4.00;;;;;20.91;53.93;100293.47;105686;1271;20848;-64
2022/11/17 08:08:56;;;;;;;;;4.50;4.50;;;;;20.94;53.96;100287.73;105699;1280;22212;-63
2022/11/17 08:11:23;;;;;;;;;5.00;4.00;;;;;20.99;53.62;100290.02;105705;1281;19975;-64
2022/11/17 08:13:51;;;;;;;;;4.00;4.00;;;;;21.00;53.71;100286.90;105606;1296;22750;-65
2022/11/17 08:16:18;;;;;;;;;4.00;4.00;;;;;20.98;53.62;100291.89;105761;1288;22382;-65
2022/11/17 08:18:46;;;;;;;;;6.00;4.50;;;;;20.98;53.70;100288.45;105677;1295;22691;-63
2022/11/17 08:21:14;;;;;;;;;4.00;4.00;;;;;20.98;53.71;100292.10;105647;1297;19305;-64
2022/11/17 08:23:41;;;;;;;;;4.00;4.00;;;;;20.98;53.56;100287.91;105660;1279;18494;-65
2022/11/17 08:26:09;;;;;;;;;7.00;4.00;;;;;20.99;53.70;100288.89;105530;1288;23611;-63
2022/11/17 08:28:36;;;;;;;;;4.00;4.00;;;;;20.98;53.60;100283.91;105648;1272;19309;-65
2022/11/17 08:31:04;;;;;;;;;2.00;2.00;;;;;20.96;53.49;100280.16;105738;1296;18524;-66
2022/11/17 08:33:31;;;;;;;;;4.00;4.00;;;;;20.99;53.45;100281.09;105676;1295;22574;-62
2022/11/17 08:35:59;;;;;;;;;2.00;2.00;;;;;21.00;53.54;100281.29;105649;1288;19304;-63
2022/11/17 08:38:27;;;;;;;;;2.00;2.00;;;;;20.99;53.40;100282.27;105666;1294;18407;-64
2022/11/17 08:40:55;;;;;;;;;4.50;4.00;;;;;20.94;53.55;100287.08;105644;1284;20316;-63
2022/11/17 08:43:23;;;;;;;;;5.00;4.00;;;;;20.89;53.55;100290.07;105718;1297;19759;-64
2022/11/17 08:45:50;;;;;;;;;4.00;4.00;;;;;20.86;53.61;100295.83;105697;1272;18427;-64
2022/11/17 08:48:18;;;;;;;;;3.00;3.00;;;;;20.81;53.70;100293.09;105711;1279;20004;-65
2022/11/17 08:50:46;;;;;;;;;2.00;2.00;;;;;20.78;53.77;100293.59;105683;1274;22195;-62
2022/11/17 08:53:13;;;;;;;;;2.67;2.67;;;;;20.76;53.74;100294.31;105631;1272;18504;-63
2022/11/17 08:55:40;;;;;;;;;;;;;;;20.71;53.79;100295.55;105704;1287;19065;-63
2022/11/17 08:58:08;;;;;;;;;2.00;2.00;;;;;20.69;53.93;100293.86;105691;1273;20672;-64
2022/11/17 09:00:35;;;;;;;;;4.00;4.00;;;;;20.67;54.10;100298.83;105617;1288;21181;-64
2022/11/17 09:03:02;;;;;;;;;2.00;2.00;;;;;20.65;53.95;100300.95;105638;1279;18811;-64
2022/11/17 09:05:30;;;;;;;;;5.00;4.00;;;;;20.63;54.00;100300.44;105702;1279;20485;-64
2022/11/17 09:07:57;;;;;;;;;5.00;4.00;;;;;20.62;54.15;100300.10;105668;1289;18505;-64
2022/11/17 09:10:24;;;;;;;;;4.00;4.00;;;;;20.61;53.97;100295.52;105724;1287;23074;-64
2022/11/17 09:12:52;;;;;;;;;4.00;2.00;;;;;20.59;54.15;100294.58;105550;1271;22798;-64
2022/11/17 09:15:20;;;;;;;;;4.00;4.00;;;;;20.59;54.07;100299.84;105647;1279;18407;-64
2022/11/17 09:17:48;;;;;;;;;;;;;;;20.57;53.92;100293.70;105658;1272;18554;-64
2022/11/17 09:20:15;;;;;;;;;4.00;4.00;;;;;20.58;53.90;100295.84;105674;1275;19950;-63
2022/11/17 09:22:43;;;;;;;;;3.00;3.00;;;;;20.58;54.06;100289.38;105668;1279;18444;-63
2022/11/17 09:25:10;;;;;;;;;4.00;2.00;;;;;20.58;53.86;100287.61;105725;1284;18514;-64
2022/11/17 09:27:37;;;;;;;;;;;;;;;20.57;53.91;100287.84;105673;1281;20808;-63
2022/11/17 09:30:07;;;;;;;;;5.00;4.00;;;;;20.58;54.10;100290.16;105642;1279;19662;-64
2022/11/17 09:32:34;;;;;;;;;4.00;4.00;;;;;20.56;53.85;100283.38;105569;1288;20208;-64
2022/11/17 09:35:05;;;;;;;;;4.00;4.00;;;;;20.56;53.86;100288.70;105681;1288;20881;-64
2022/11/17 09:37:32;;;;;;;;;5.00;4.00;;;;;20.56;53.97;100290.03;105720;1297;18521;-64
2022/11/17 09:40:00;;;;;;;;;4.00;4.00;;;;;20.56;53.98;100292.71;105706;1297;18829;-64
2022/11/17 09:42:28;;;;;;;;;;;;;;;20.56;53.79;100288.23;105635;1279;19401;-64
2022/11/17 09:44:56;;;;;;;;;4.00;4.00;;;;;20.55;53.70;100288.67;105664;1288;18381;-63
2022/11/17 09:47:23;;;;;;;;;2.00;2.00;;;;;20.53;53.71;100284.69;105663;1297;18529;-64
2022/11/17 09:49:50;;;;;;;;;4.00;4.00;;;;;20.53;53.91;100284.89;105683;1288;22011;-64
2022/11/17 09:52:18;;;;;;;;;2.00;2.00;;;;;20.53;53.66;100283.05;105671;1279;18433;-63
2022/11/17 09:54:45;;;;;;;;;3.00;2.00;;;;;20.53;53.75;100283.80;105650;1300;23211;-63
2022/11/17 09:57:12;;;;;;;;;4.00;4.00;;;;;20.51;53.89;100282.69;105672;1288;22929;-62
2022/11/17 09:59:40;;;;;;;;;2.00;2.00;;;;;20.51;53.65;100280.20;105679;1297;18426;-63
2022/11/17 10:02:07;;;;;;;;;5.00;5.00;;;;;20.51;53.71;100277.65;105661;1295;18622;-62
2022/11/17 10:04:34;;;;;;;;;4.00;4.00;;;;;20.51;53.62;100274.77;105699;1297;19547;-64
2022/11/17 10:07:02;;;;;;;;;2.00;2.00;;;;;20.51;53.56;100270.61;105698;1297;19983;-63
2022/11/17 10:09:30;;;;;;;;;;;;;;;20.50;53.69;100269.26;105612;1281;18542;-63
2022/11/17 10:11:57;;;;;;;;;3.00;3.00;;;;;20.51;53.72;100268.94;105685;1272;20495;-64
2022/11/17 10:14:24;;;;;;;;;4.00;4.00;;;;;20.51;53.71;100270.23;105688;1279;19362;-64
2022/11/17 10:16:52;;;;;;;;;4.00;2.00;;;;;20.51;53.76;100269.73;105686;1297;18532;-64
2022/11/17 10:19:20;;;;;;;;;2.00;2.00;;;;;20.49;53.84;100265.19;105661;1280;19447;-63
2022/11/17 10:21:47;;;;;;;;;2.00;2.00;;;;;20.49;54.08;100263.92;105600;1297;19341;-63
2022/11/17 10:24:17;;;;;;;;;2.00;2.00;;;;;20.49;53.79;100262.98;105720;1280;20044;-63
2022/11/17 10:26:44;;;;;;;;;4.00;4.00;;;;;20.49;53.90;100262.71;105679;1271;20832;-64
2022/11/17 10:29:11;;;;;;;;;2.00;2.00;;;;;20.49;53.81;100263.26;105696;1297;18459;-63
2022/11/17 10:31:39;;;;;;;;;4.00;4.00;;;;;20.49;53.75;100257.77;105691;1297;20159;-64
2022/11/17 10:34:06;;;;;;;;;4.00;4.00;;;;;20.48;53.75;100255.33;105651;1272;19336;-64
2022/11/17 10:36:33;;;;;;;;;4.00;4.00;;;;;20.47;53.78;100254.90;105655;1288;18506;-64
2022/11/17 10:39:01;;;;;;;;;4.00;4.00;;;;;20.47;53.69;100249.00;105569;1272;21088;-63
2022/11/17 10:41:29;;;;;;;;;2.00;2.00;;;;;20.48;53.72;100254.70;105642;1297;19332;-63
2022/11/17 10:43:57;;;;;;;;;4.00;4.00;;;;;20.47;53.52;100259.34;105662;1297;18561;-63
2022/11/17 10:46:24;;;;;;;;;2.00;2.00;;;;;20.47;53.64;100254.64;105714;1281;18683;-63
2022/11/17 10:48:51;;;;;;;;;4.00;4.00;;;;;20.46;53.77;100253.23;105674;1279;19367;-64
2022/11/17 10:51:19;;;;;;;;;5.00;5.00;;;;;20.46;53.98;100249.98;105703;1295;18576;-64
2022/11/17 10:53:47;;;;;;;;;4.00;4.00;;;;;20.46;53.80;100248.20;105697;1282;20948;-64
2022/11/17 10:56:14;;;;;;;;;4.00;4.00;;;;;20.45;53.73;100243.95;105680;1300;19290;-64
2022/11/17 10:58:42;;;;;;;;;4.00;4.00;;;;;20.45;53.60;100246.45;105688;1296;18445;-64
2022/11/17 11:01:09;;;;;;;;;4.00;4.00;;;;;20.44;53.61;100243.46;105696;1282;18993;-64
2022/11/17 11:03:38;;;;;;;;;2.00;2.00;;;;;20.44;53.75;100242.23;105686;1274;20785;-64
2022/11/17 11:06:26;;;;;;;;;2.00;2.00;;;;;20.44;53.58;100247.52;105664;1280;22380;-62
2022/11/17 11:08:54;;;;;;;;;2.00;2.00;;;;;20.43;53.67;100246.38;105734;1286;19217;-63
2022/11/17 11:11:22;;;;;;;;;3.33;2.00;;;;;20.43;53.68;100242.69;105695;1296;19351;-64
2022/11/17 11:13:49;;;;;;;;;2.00;2.00;;;;;20.43;53.70;100242.52;105648;1288;18493;-64
2022/11/17 11:16:17;;;;;;;;;2.00;2.00;;;;;20.43;53.77;100240.15;105731;1279;20017;-63
2022/11/17 11:18:44;;;;;;;;;2.00;2.00;;;;;20.44;53.77;100237.17;105683;1297;19330;-64
2022/11/17 11:21:11;;;;;;;;;3.00;3.00;;;;;20.43;53.47;100238.17;105697;1297;20047;-64
2022/11/17 11:23:39;;;;;;;;;4.00;4.00;;;;;20.43;53.53;100233.10;105674;1297;18555;-64
2022/11/17 11:26:06;;;;;;;;;2.00;2.00;;;;;20.43;53.57;100238.86;105694;1297;19207;-64
2022/11/17 11:28:34;;;;;;;;;5.00;4.00;;;;;20.43;53.51;100235.88;105762;1297;19638;-64
2022/11/17 11:31:01;;;;;;;;;2.00;1.00;;;;;20.42;53.65;100236.78;105690;1288;20050;-64
2022/11/17 11:33:28;;;;;;;;;2.00;2.00;;;;;20.42;53.36;100237.20;105717;1297;22383;-63
2022/11/17 11:35:56;;;;;;;;;2.00;2.00;;;;;20.43;53.31;100234.02;105678;1271;20221;-63
2022/11/17 11:38:24;;;;;;;;;4.00;4.00;;;;;20.42;53.55;100230.83;105718;1297;18993;-65
2022/11/17 11:40:51;;;;;;;;;2.00;2.00;;;;;20.42;53.41;100234.98;105687;1291;20841;-63
2022/11/17 11:43:19;;;;;;;;;1.50;1.50;;;;;20.42;53.59;100240.88;105716;1297;18360;-65
2022/11/17 11:45:46;;;;;;;;;4.00;4.00;;;;;20.41;53.38;100235.85;105674;1297;18521;-63
2022/11/17 11:48:13;;;;;;;;;2.00;2.00;;;;;20.40;53.38;100231.10;105717;1272;19266;-64
2022/11/17 11:50:41;;;;;;;;;2.00;2.00;;;;;20.41;53.36;100232.86;105673;1297;19672;-64
2022/11/17 11:53:09;;;;;;;;;2.00;2.00;;;;;20.41;53.54;100238.11;105703;1288;19967;-64